createdAt,value
2017-10-13T00:00:52.506Z,17.90
2017-10-13T00:03:19.977Z,17.90
2017-10-13T00:05:47.433Z,17.90
2017-10-13T00:08:14.914Z,17.80
2017-10-13T00:10:43.146Z,17.90
2017-10-13T00:13:10.630Z,17.80
2017-10-13T00:15:38.084Z,17.90
2017-10-13T00:18:05.543Z,17.80
2017-10-13T00:20:33.013Z,17.80
2017-10-13T00:23:01.250Z,17.80
2017-10-13T00:25:28.707Z,17.80
2017-10-13T00:27:56.150Z,17.80
2017-10-13T00:30:23.613Z,17.80
2017-10-13T00:32:51.847Z,17.80
2017-10-13T00:35:19.302Z,17.70
2017-10-13T00:37:46.746Z,17.70
2017-10-13T00:40:14.226Z,17.70
2017-10-13T00:42:41.674Z,17.70
2017-10-13T00:45:09.143Z,17.80
2017-10-13T00:47:36.605Z,17.80
2017-10-13T00:50:04.105Z,17.70
2017-10-13T00:52:31.586Z,17.70
2017-10-13T00:54:59.039Z,17.70
2017-10-13T00:57:26.507Z,17.70
2017-10-13T00:59:54.009Z,17.70
2017-10-13T01:02:22.226Z,17.60
2017-10-13T01:04:49.683Z,17.60
2017-10-13T01:07:17.141Z,17.60
2017-10-13T01:09:44.605Z,17.70
2017-10-13T01:12:12.055Z,17.70
2017-10-13T01:14:39.510Z,17.70
2017-10-13T01:17:06.969Z,17.60
2017-10-13T01:19:34.418Z,17.60
2017-10-13T01:22:01.882Z,17.60
2017-10-13T01:24:29.338Z,17.60
2017-10-13T01:26:56.797Z,17.60
2017-10-13T01:29:24.253Z,17.60
2017-10-13T01:31:51.710Z,17.60
2017-10-13T01:34:19.167Z,17.50
2017-10-13T01:36:47.394Z,17.60
2017-10-13T01:39:14.850Z,17.50
2017-10-13T01:41:42.323Z,17.50
2017-10-13T01:44:09.763Z,17.40
2017-10-13T01:46:37.226Z,17.50
2017-10-13T01:49:04.685Z,17.50
2017-10-13T01:51:32.145Z,17.50
2017-10-13T01:53:59.742Z,17.40
2017-10-13T01:56:27.206Z,17.50
2017-10-13T01:58:54.659Z,17.50
2017-10-13T02:01:22.114Z,17.50
2017-10-13T02:03:49.575Z,17.50
2017-10-13T02:06:17.030Z,17.40
2017-10-13T02:08:44.486Z,17.40
2017-10-13T02:11:12.700Z,17.40
2017-10-13T02:13:40.158Z,17.30
2017-10-13T02:16:07.614Z,17.30
2017-10-13T02:18:35.076Z,17.30
2017-10-13T02:21:02.530Z,17.30
2017-10-13T02:23:30.007Z,17.30
2017-10-13T02:25:57.461Z,17.30
2017-10-13T02:28:24.926Z,17.30
2017-10-13T02:30:52.374Z,17.30
2017-10-13T02:33:19.829Z,17.30
2017-10-13T02:35:47.291Z,17.30
2017-10-13T02:38:14.751Z,17.30
2017-10-13T02:40:42.202Z,17.30
2017-10-13T02:43:09.663Z,17.20
2017-10-13T02:45:37.117Z,17.20
2017-10-13T02:48:04.582Z,17.20
2017-10-13T02:50:32.038Z,17.20
2017-10-13T02:52:59.491Z,17.20
2017-10-13T02:55:27.106Z,17.20
2017-10-13T02:57:54.557Z,17.10
2017-10-13T03:00:22.013Z,17.10
2017-10-13T03:02:49.465Z,17.10
2017-10-13T03:05:16.946Z,17.10
2017-10-13T03:07:45.157Z,17.10
2017-10-13T03:10:12.611Z,17.10
2017-10-13T03:12:40.070Z,17.00
2017-10-13T03:15:07.527Z,17.10
2017-10-13T03:17:34.988Z,17.00
2017-10-13T03:20:02.462Z,17.00
2017-10-13T03:22:29.916Z,17.00
2017-10-13T03:24:57.370Z,17.00
2017-10-13T03:27:24.827Z,17.00
2017-10-13T03:29:52.286Z,17.00
2017-10-13T03:32:19.733Z,16.90
2017-10-13T03:34:47.205Z,16.90
2017-10-13T03:37:14.658Z,16.90
2017-10-13T03:39:42.124Z,17.00
2017-10-13T03:42:09.648Z,17.00
2017-10-13T03:44:37.844Z,16.90
2017-10-13T03:47:05.298Z,16.90
2017-10-13T03:49:32.789Z,16.90
2017-10-13T03:52:00.243Z,16.90
2017-10-13T03:54:27.715Z,16.90
2017-10-13T03:56:55.182Z,16.90
2017-10-13T03:59:23.398Z,16.90
2017-10-13T04:01:50.857Z,16.80
2017-10-13T04:04:18.315Z,16.80
2017-10-13T04:06:45.769Z,16.90
2017-10-13T04:09:13.222Z,16.80
2017-10-13T04:11:40.685Z,16.90
2017-10-13T04:14:08.151Z,16.80
2017-10-13T04:16:35.606Z,16.80
2017-10-13T04:19:03.053Z,16.80
2017-10-13T04:21:30.514Z,16.80
2017-10-13T04:23:57.954Z,16.80
2017-10-13T04:26:25.425Z,16.80
2017-10-13T04:28:52.869Z,16.80
2017-10-13T04:31:20.326Z,16.80
2017-10-13T04:33:47.782Z,16.80
2017-10-13T04:36:15.239Z,16.80
2017-10-13T04:38:43.450Z,16.70
2017-10-13T04:41:10.894Z,16.70
2017-10-13T04:43:38.349Z,16.70
2017-10-13T04:46:05.810Z,16.70
2017-10-13T04:48:33.267Z,16.70
2017-10-13T04:51:00.709Z,16.70
2017-10-13T04:53:28.177Z,16.70
2017-10-13T04:55:55.694Z,16.70
2017-10-13T04:58:23.918Z,16.70
2017-10-13T05:00:51.362Z,16.70
2017-10-13T05:03:18.823Z,16.70
2017-10-13T05:05:46.274Z,16.70
2017-10-13T05:08:13.729Z,16.60
2017-10-13T05:13:15.154Z,16.60
2017-10-13T05:15:42.602Z,16.60
2017-10-13T05:18:10.112Z,16.70
2017-10-13T05:20:37.569Z,16.60
2017-10-13T05:23:05.031Z,16.60
2017-10-13T05:25:32.501Z,16.50
2017-10-13T05:27:59.984Z,16.60
2017-10-13T05:30:27.454Z,16.70
2017-10-13T05:32:55.730Z,16.60
2017-10-13T05:35:23.186Z,16.60
2017-10-13T05:37:50.654Z,16.60
2017-10-13T05:40:18.881Z,16.60
2017-10-13T05:42:46.326Z,16.60
2017-10-13T05:45:13.783Z,16.60
2017-10-13T05:47:41.226Z,16.60
2017-10-13T05:50:08.699Z,16.60
2017-10-13T05:52:36.138Z,16.60
2017-10-13T05:55:03.603Z,16.60
2017-10-13T05:57:31.047Z,16.60
2017-10-13T05:59:58.560Z,16.60
2017-10-13T06:02:26.001Z,16.60
2017-10-13T06:04:53.469Z,16.60
2017-10-13T06:07:20.935Z,16.60
2017-10-13T06:09:48.401Z,16.60
2017-10-13T06:12:15.850Z,16.60
2017-10-13T06:14:43.317Z,16.60
2017-10-13T06:17:10.770Z,16.50
2017-10-13T06:19:38.242Z,16.60
2017-10-13T06:22:06.456Z,16.60
2017-10-13T06:24:33.902Z,16.60
2017-10-13T06:27:01.364Z,16.60
2017-10-13T06:29:28.805Z,16.60
2017-10-13T06:31:57.053Z,16.60
2017-10-13T06:34:24.538Z,16.60
2017-10-13T06:36:52.754Z,16.60
2017-10-13T06:39:20.204Z,16.60
2017-10-13T06:41:47.661Z,16.60
2017-10-13T06:44:15.874Z,16.60
2017-10-13T06:46:43.342Z,16.70
2017-10-13T06:49:11.562Z,16.70
2017-10-13T06:51:39.025Z,16.70
2017-10-13T06:54:06.478Z,16.70
2017-10-13T06:56:34.023Z,16.70
2017-10-13T06:59:02.261Z,16.80
2017-10-13T07:01:29.727Z,16.80
2017-10-13T07:03:57.949Z,16.90
2017-10-13T07:06:25.411Z,16.90
2017-10-13T07:08:52.857Z,16.80
2017-10-13T07:11:20.312Z,16.80
2017-10-13T07:13:47.754Z,16.80
2017-10-13T07:16:15.230Z,16.90
2017-10-13T07:18:42.683Z,16.90
2017-10-13T07:21:10.150Z,16.90
2017-10-13T07:23:37.637Z,16.90
2017-10-13T07:26:05.086Z,17.00
2017-10-13T07:28:32.546Z,17.00
2017-10-13T07:31:00.043Z,17.00
2017-10-13T07:33:31.719Z,17.10
2017-10-13T07:35:59.792Z,17.10
2017-10-13T07:38:28.079Z,17.10
2017-10-13T07:40:55.526Z,17.10
2017-10-13T07:43:22.979Z,17.10
2017-10-13T07:45:50.433Z,17.20
2017-10-13T07:48:18.654Z,17.40
2017-10-13T07:50:46.118Z,17.30
2017-10-13T07:53:13.564Z,17.30
2017-10-13T07:55:41.051Z,17.40
2017-10-13T07:58:08.506Z,17.50
2017-10-13T08:00:35.961Z,17.50
2017-10-13T08:03:03.410Z,17.50
2017-10-13T08:05:30.866Z,17.60
2017-10-13T08:07:58.351Z,17.60
2017-10-13T08:10:26.678Z,17.70
2017-10-13T08:12:54.121Z,17.70
2017-10-13T08:15:21.574Z,17.70
2017-10-13T08:17:49.036Z,17.80
2017-10-13T08:20:17.261Z,17.90
2017-10-13T08:22:44.709Z,17.90
2017-10-13T08:25:12.158Z,18.00
2017-10-13T08:27:39.605Z,18.00
2017-10-13T08:30:07.831Z,18.30
2017-10-13T08:32:35.314Z,18.20
2017-10-13T08:35:03.543Z,18.40
2017-10-13T08:37:31.002Z,18.30
2017-10-13T08:39:59.234Z,18.50
2017-10-13T08:42:26.685Z,18.50
2017-10-13T08:44:54.153Z,18.60
2017-10-13T08:47:21.594Z,18.60
2017-10-13T08:49:49.810Z,18.80
2017-10-13T08:52:17.284Z,18.80
2017-10-13T08:54:45.517Z,19.00
2017-10-13T08:57:13.722Z,19.10
2017-10-13T08:59:41.181Z,19.10
2017-10-13T09:02:08.632Z,19.20
2017-10-13T09:04:36.112Z,19.40
2017-10-13T09:07:04.342Z,19.90
2017-10-13T09:09:31.782Z,19.90
2017-10-13T09:11:59.250Z,20.20
2017-10-13T09:14:26.689Z,20.60
2017-10-13T09:16:54.911Z,21.50
2017-10-13T09:19:22.373Z,21.50
2017-10-13T09:21:52.751Z,21.80
2017-10-13T09:24:20.210Z,22.10
2017-10-13T09:26:47.682Z,22.10
2017-10-13T09:29:15.138Z,22.30
2017-10-13T09:31:42.593Z,22.40
2017-10-13T09:34:10.046Z,22.60
2017-10-13T09:36:37.521Z,22.80
2017-10-13T09:39:05.001Z,23.10
2017-10-13T09:41:33.235Z,23.60
2017-10-13T09:44:00.700Z,23.60
2017-10-13T09:46:28.159Z,23.80
2017-10-13T09:48:55.630Z,24.20
2017-10-13T09:51:23.886Z,24.70
2017-10-13T09:53:51.347Z,24.70
2017-10-13T09:56:18.801Z,24.90
2017-10-13T09:58:46.273Z,25.20
2017-10-13T10:01:13.723Z,25.40
2017-10-13T10:03:41.942Z,25.40
2017-10-13T10:06:10.168Z,25.20
2017-10-13T10:08:37.630Z,25.20
2017-10-13T10:11:05.086Z,25.20
2017-10-13T10:13:32.554Z,25.30
2017-10-13T10:16:00.792Z,25.40
2017-10-13T10:18:28.253Z,25.40
2017-10-13T10:20:55.706Z,25.30
2017-10-13T10:23:23.169Z,25.20
2017-10-13T10:25:50.625Z,25.10
2017-10-13T10:28:18.852Z,25.00
2017-10-13T10:30:46.304Z,25.00
2017-10-13T10:33:13.749Z,24.90
2017-10-13T10:35:41.217Z,24.90
2017-10-13T10:38:08.663Z,25.00
2017-10-13T10:40:36.131Z,25.10
2017-10-13T10:43:03.579Z,25.40
2017-10-13T10:45:31.047Z,26.00
2017-10-13T10:47:58.504Z,26.40
2017-10-13T10:50:25.965Z,26.70
2017-10-13T10:52:53.421Z,27.00
2017-10-13T10:55:20.874Z,27.30
2017-10-13T10:57:48.317Z,27.60
2017-10-13T11:00:15.791Z,27.90
2017-10-13T11:02:43.233Z,28.20
2017-10-13T11:05:11.473Z,28.80
2017-10-13T11:07:38.944Z,28.70
2017-10-13T11:10:06.409Z,29.20
2017-10-13T11:12:33.860Z,29.60
2017-10-13T11:15:01.318Z,30.00
2017-10-13T11:17:28.792Z,30.20
2017-10-13T11:19:56.233Z,30.20
2017-10-13T11:22:23.694Z,30.30
2017-10-13T11:24:51.134Z,30.30
2017-10-13T11:27:18.624Z,30.30
2017-10-13T11:29:46.070Z,30.40
2017-10-13T11:32:13.525Z,30.50
2017-10-13T11:34:40.986Z,30.70
2017-10-13T11:37:08.515Z,30.70
2017-10-13T11:39:35.976Z,30.70
2017-10-13T11:42:03.434Z,30.70
2017-10-13T11:44:30.891Z,30.60
2017-10-13T11:46:58.342Z,30.70
2017-10-13T11:49:25.795Z,30.60
2017-10-13T11:51:54.014Z,29.90
2017-10-13T11:54:21.471Z,29.90
2017-10-13T11:56:48.927Z,29.80
2017-10-13T11:59:16.410Z,29.80
2017-10-13T12:01:43.865Z,30.30
2017-10-13T12:04:12.114Z,31.10
2017-10-13T12:06:39.566Z,31.10
2017-10-13T12:09:07.034Z,31.50
2017-10-13T12:11:34.495Z,31.20
2017-10-13T12:14:01.933Z,30.50
2017-10-13T12:16:29.390Z,30.20
2017-10-13T12:18:56.883Z,30.00
2017-10-13T12:21:24.346Z,30.10
2017-10-13T12:23:51.806Z,30.40
2017-10-13T12:26:19.252Z,30.40
2017-10-13T12:28:47.487Z,29.90
2017-10-13T12:31:14.955Z,29.80
2017-10-13T12:33:42.426Z,29.70
2017-10-13T12:36:09.871Z,29.70
2017-10-13T12:38:37.326Z,29.90
2017-10-13T12:41:04.795Z,30.70
2017-10-13T12:43:32.250Z,31.40
2017-10-13T12:45:59.776Z,31.80
2017-10-13T12:48:27.250Z,32.30
2017-10-13T12:50:54.723Z,32.70
2017-10-13T12:53:22.179Z,33.00
2017-10-13T12:55:49.643Z,33.30
2017-10-13T12:58:17.885Z,33.80
2017-10-13T13:00:45.334Z,33.80
2017-10-13T13:03:12.791Z,34.00
2017-10-13T13:05:40.247Z,34.30
2017-10-13T13:08:07.702Z,34.50
2017-10-13T13:10:35.161Z,34.70
2017-10-13T13:13:02.618Z,34.70
2017-10-13T13:15:30.082Z,34.70
2017-10-13T13:17:57.534Z,34.60
2017-10-13T13:20:25.068Z,34.60
2017-10-13T13:22:53.291Z,34.60
2017-10-13T13:25:20.774Z,34.60
2017-10-13T13:27:49.004Z,34.60
2017-10-13T13:30:16.458Z,34.60
2017-10-13T13:32:43.931Z,34.50
2017-10-13T13:35:11.390Z,34.30
2017-10-13T13:37:39.607Z,34.50
2017-10-13T13:40:07.063Z,34.40
2017-10-13T13:42:34.518Z,34.40
2017-10-13T13:45:02.033Z,34.20
2017-10-13T13:47:29.495Z,33.70
2017-10-13T13:49:56.958Z,32.80
2017-10-13T13:52:24.425Z,32.20
2017-10-13T13:54:51.874Z,31.70
2017-10-13T13:57:20.094Z,31.00
2017-10-13T13:59:47.545Z,31.00
2017-10-13T14:02:15.799Z,31.00
2017-10-13T14:04:43.277Z,30.90
2017-10-13T14:07:10.742Z,31.00
2017-10-13T14:09:38.977Z,30.90
2017-10-13T14:12:07.199Z,30.90
2017-10-13T14:14:34.659Z,30.90
2017-10-13T14:17:02.882Z,30.60
2017-10-13T14:19:30.350Z,30.60
2017-10-13T14:21:57.825Z,30.40
2017-10-13T14:24:25.295Z,29.90
2017-10-13T14:26:53.535Z,29.40
2017-10-13T14:29:20.994Z,29.40
2017-10-13T14:31:48.479Z,29.00
2017-10-13T14:34:15.946Z,28.80
2017-10-13T14:36:43.386Z,28.60
2017-10-13T14:39:10.850Z,28.40
2017-10-13T14:41:38.297Z,28.30
2017-10-13T14:44:06.573Z,27.90
2017-10-13T14:46:34.027Z,27.90
2017-10-13T14:49:02.283Z,27.60
2017-10-13T14:51:29.744Z,27.60
2017-10-13T14:53:57.997Z,27.30
2017-10-13T14:56:25.468Z,27.30
2017-10-13T14:58:52.930Z,27.20
2017-10-13T15:01:20.398Z,27.00
2017-10-13T15:03:47.869Z,26.90
2017-10-13T15:06:15.338Z,26.80
2017-10-13T15:08:42.783Z,26.70
2017-10-13T15:11:10.250Z,26.60
2017-10-13T15:13:37.708Z,26.60
2017-10-13T15:16:05.166Z,26.50
2017-10-13T15:18:32.615Z,26.30
2017-10-13T15:21:00.064Z,25.70
2017-10-13T15:23:27.539Z,24.80
2017-10-13T15:25:55.014Z,24.10
2017-10-13T15:28:28.187Z,23.50
2017-10-13T15:31:01.589Z,23.30
2017-10-13T15:36:32.730Z,24.00
2017-10-13T15:39:05.914Z,24.20
2017-10-13T15:41:39.002Z,24.40
2017-10-13T15:44:12.013Z,24.50
2017-10-13T15:46:45.166Z,24.50
2017-10-13T15:49:18.324Z,24.60
2017-10-13T15:51:52.116Z,24.60
2017-10-13T15:54:19.557Z,24.60
2017-10-13T15:56:47.060Z,24.60
2017-10-13T15:59:14.513Z,24.60
2017-10-13T16:01:42.734Z,24.60
2017-10-13T16:04:10.203Z,24.50
2017-10-13T16:06:37.702Z,24.60
2017-10-13T16:09:05.163Z,24.50
2017-10-13T16:11:32.610Z,24.50
2017-10-13T16:14:00.074Z,24.50
2017-10-13T16:16:27.547Z,24.40
2017-10-13T16:18:54.998Z,24.40
2017-10-13T16:21:22.467Z,24.40
2017-10-13T16:23:50.678Z,24.30
2017-10-13T16:26:18.133Z,24.30
2017-10-13T16:28:45.583Z,24.30
2017-10-13T16:31:13.038Z,24.30
2017-10-13T16:33:41.265Z,24.20
2017-10-13T16:36:08.756Z,24.20
2017-10-13T16:38:36.996Z,24.10
2017-10-13T16:41:04.456Z,24.10
2017-10-13T16:43:31.922Z,24.10
2017-10-13T16:45:59.367Z,24.10
2017-10-13T16:48:26.822Z,24.00
2017-10-13T16:50:55.048Z,24.00
2017-10-13T16:53:22.510Z,23.90
2017-10-13T16:55:49.971Z,24.00
2017-10-13T16:58:17.498Z,23.90
2017-10-13T17:00:44.967Z,23.90
2017-10-13T17:03:12.439Z,23.90
2017-10-13T17:05:39.882Z,23.80
2017-10-13T17:08:07.341Z,23.80
2017-10-13T17:10:34.822Z,23.80
2017-10-13T17:13:02.270Z,23.80
2017-10-13T17:15:29.722Z,23.70
2017-10-13T17:17:57.173Z,23.70
2017-10-13T17:20:24.630Z,23.60
2017-10-13T17:22:52.110Z,23.60
2017-10-13T17:25:19.572Z,23.60
2017-10-13T17:27:47.018Z,23.60
2017-10-13T17:30:14.497Z,23.50
2017-10-13T17:32:41.950Z,23.50
2017-10-13T17:35:10.181Z,23.50
2017-10-13T17:37:37.647Z,23.40
2017-10-13T17:40:05.121Z,23.40
2017-10-13T17:42:32.579Z,23.40
2017-10-13T17:45:00.031Z,23.40
2017-10-13T17:47:27.505Z,23.40
2017-10-13T17:49:54.958Z,23.30
2017-10-13T17:52:22.418Z,23.30
2017-10-13T17:54:49.881Z,23.30
2017-10-13T17:57:17.323Z,23.30
2017-10-13T17:59:44.774Z,23.30
2017-10-13T18:02:12.235Z,23.20
2017-10-13T18:04:39.686Z,23.20
2017-10-13T18:07:07.143Z,23.20
2017-10-13T18:09:34.603Z,23.20
2017-10-13T18:12:02.059Z,23.20
2017-10-13T18:14:29.515Z,23.20
2017-10-13T18:16:56.978Z,23.10
2017-10-13T18:19:24.429Z,23.10
2017-10-13T18:21:52.987Z,23.10
2017-10-13T18:24:21.196Z,23.00
2017-10-13T18:26:48.653Z,23.00
2017-10-13T18:29:16.116Z,23.00
2017-10-13T18:31:43.563Z,23.00
2017-10-13T18:34:11.007Z,23.00
2017-10-13T18:36:38.573Z,22.90
2017-10-13T18:39:06.024Z,22.90
2017-10-13T18:41:33.488Z,22.90
2017-10-13T18:44:01.797Z,22.90
2017-10-13T18:46:29.933Z,22.90
2017-10-13T18:48:57.645Z,22.90
2017-10-13T18:51:25.157Z,22.80
2017-10-13T18:53:52.606Z,22.80
2017-10-13T18:56:20.909Z,22.80
2017-10-13T18:58:48.541Z,22.80
2017-10-13T19:01:16.381Z,22.80
2017-10-13T19:03:44.609Z,22.70
2017-10-13T19:06:12.544Z,22.70
2017-10-13T19:08:39.992Z,22.70
2017-10-13T19:11:08.210Z,22.70
2017-10-13T19:13:35.670Z,22.70
2017-10-13T19:16:03.118Z,22.70
2017-10-13T19:18:30.968Z,22.70
2017-10-13T19:20:58.424Z,22.60
2017-10-13T19:23:26.568Z,22.60
2017-10-13T19:25:55.078Z,22.60
2017-10-13T19:28:22.526Z,22.60
2017-10-13T19:30:49.987Z,22.60
2017-10-13T19:33:17.445Z,22.60
2017-10-13T19:35:44.939Z,22.60
2017-10-13T19:38:12.395Z,22.60
2017-10-13T19:40:39.850Z,22.50
2017-10-13T19:43:07.322Z,22.50
2017-10-13T19:45:34.785Z,22.50
2017-10-13T19:48:02.254Z,22.50
2017-10-13T19:50:29.735Z,22.50
2017-10-13T19:52:57.372Z,22.50
2017-10-13T19:55:25.598Z,22.40
2017-10-13T19:57:53.045Z,22.40
2017-10-13T20:00:20.506Z,22.40
2017-10-13T20:02:47.974Z,22.40
2017-10-13T20:05:15.429Z,22.40
2017-10-13T20:07:42.884Z,22.40
2017-10-13T20:10:10.339Z,22.40
2017-10-13T20:12:37.790Z,22.30
2017-10-13T20:15:05.252Z,22.30
2017-10-13T20:17:32.721Z,22.30
2017-10-13T20:20:00.169Z,22.30
2017-10-13T20:22:27.618Z,22.30
2017-10-13T20:24:55.087Z,22.30
2017-10-13T20:27:22.555Z,22.30
2017-10-13T20:29:50.011Z,22.30
2017-10-13T20:32:17.461Z,22.30
2017-10-13T20:34:44.906Z,22.20
2017-10-13T20:37:12.363Z,22.20
2017-10-13T20:39:39.810Z,22.20
2017-10-13T20:42:07.271Z,22.20
2017-10-13T20:44:34.746Z,22.20
2017-10-13T20:47:02.206Z,22.20
2017-10-13T20:49:29.653Z,22.20
2017-10-13T20:51:57.138Z,22.20
2017-10-13T20:54:24.584Z,22.10
2017-10-13T20:56:52.029Z,22.10
2017-10-13T20:59:19.478Z,22.10
2017-10-13T21:01:46.953Z,22.10
2017-10-13T21:04:14.394Z,22.10
2017-10-13T21:06:41.855Z,22.10
2017-10-13T21:09:09.305Z,22.10
2017-10-13T21:11:36.776Z,22.10
2017-10-13T21:14:04.197Z,22.10
2017-10-13T21:16:31.666Z,22.10
2017-10-13T21:18:59.113Z,22.00
2017-10-13T21:21:26.589Z,22.00
2017-10-13T21:23:54.042Z,22.00
2017-10-13T21:26:21.492Z,22.00
2017-10-13T21:28:48.941Z,22.00
2017-10-13T21:31:16.446Z,22.00
2017-10-13T21:33:43.894Z,22.00
2017-10-13T21:36:11.337Z,22.00
2017-10-13T21:38:38.793Z,22.00
2017-10-13T21:41:06.247Z,22.00
2017-10-13T21:43:33.705Z,21.90
2017-10-13T21:46:01.155Z,22.00
2017-10-13T21:48:28.658Z,22.00
2017-10-13T21:50:56.093Z,22.00
2017-10-13T21:53:23.541Z,22.00
2017-10-13T21:55:50.986Z,22.00
2017-10-13T21:58:18.458Z,21.90
2017-10-13T22:00:45.903Z,21.90
2017-10-13T22:03:13.366Z,21.90
2017-10-13T22:05:40.811Z,21.90
2017-10-13T22:08:08.277Z,21.90
2017-10-13T22:10:35.729Z,21.90
2017-10-13T22:13:03.178Z,21.90
2017-10-13T22:15:30.639Z,21.80
2017-10-13T22:17:58.093Z,21.90
2017-10-13T22:20:25.558Z,21.80
2017-10-13T22:22:53.014Z,21.90
2017-10-13T22:25:20.466Z,21.90
2017-10-13T22:27:47.914Z,21.90
2017-10-13T22:30:15.382Z,21.80
2017-10-13T22:32:42.830Z,21.80
2017-10-13T22:35:10.299Z,21.80
2017-10-13T22:37:37.734Z,21.80
2017-10-13T22:40:05.239Z,21.80
2017-10-13T22:42:32.686Z,21.80
2017-10-13T22:45:00.133Z,21.80
2017-10-13T22:47:27.594Z,21.80
2017-10-13T22:49:55.066Z,21.80
2017-10-13T22:52:22.506Z,21.80
2017-10-13T22:54:49.961Z,21.80
2017-10-13T22:57:17.414Z,21.80
2017-10-13T22:59:44.891Z,21.70
2017-10-13T23:02:12.353Z,21.70
2017-10-13T23:04:39.830Z,21.70
2017-10-13T23:07:07.278Z,21.70
2017-10-13T23:09:34.721Z,21.70
2017-10-13T23:12:02.190Z,21.70
2017-10-13T23:14:29.653Z,21.70
2017-10-13T23:16:57.101Z,21.70
2017-10-13T23:19:24.552Z,21.60
2017-10-13T23:21:52.034Z,21.60
2017-10-13T23:24:19.486Z,21.70
2017-10-13T23:26:46.945Z,21.70
2017-10-13T23:29:14.395Z,21.60
2017-10-13T23:31:41.856Z,21.60
2017-10-13T23:34:09.314Z,21.70
2017-10-13T23:36:36.790Z,21.60
2017-10-13T23:39:05.019Z,21.60
2017-10-13T23:41:32.462Z,21.60
2017-10-13T23:43:59.922Z,21.60
2017-10-13T23:46:27.377Z,21.60
2017-10-13T23:48:54.838Z,21.60
2017-10-13T23:51:22.295Z,21.60
2017-10-13T23:53:49.762Z,21.60
2017-10-13T23:56:17.214Z,21.60
2017-10-13T23:58:44.673Z,21.60
